createdAt,value
2023-05-19T00:00:57.277Z,22.90
2023-05-19T00:03:24.380Z,17.60
2023-05-19T00:05:53.126Z,24.90
2023-05-19T00:08:20.115Z,23.90
2023-05-19T00:10:47.491Z,19.60
2023-05-19T00:13:14.729Z,18.40
2023-05-19T00:15:42.045Z,18.70
2023-05-19T00:18:09.425Z,23.30
2023-05-19T00:20:37.528Z,30.80
2023-05-19T00:23:04.278Z,23.80
2023-05-19T00:25:31.306Z,36.00
2023-05-19T00:27:58.860Z,31.90
2023-05-19T00:30:26.247Z,26.70
2023-05-19T00:32:53.525Z,28.30
2023-05-19T00:35:21.224Z,27.50
2023-05-19T00:37:48.270Z,23.70
2023-05-19T00:40:15.130Z,32.60
2023-05-19T00:42:42.094Z,34.70
2023-05-19T00:45:09.664Z,45.80
2023-05-19T00:47:36.786Z,28.90
2023-05-19T00:50:04.486Z,26.20
2023-05-19T00:52:31.543Z,24.70
2023-05-19T00:54:58.829Z,18.20
2023-05-19T00:57:26.669Z,17.40
2023-05-19T00:59:53.535Z,17.10
2023-05-19T01:02:20.900Z,9.20
2023-05-19T01:04:48.336Z,8.10
2023-05-19T01:07:18.157Z,13.20
2023-05-19T01:09:45.479Z,9.40
2023-05-19T01:12:12.985Z,9.20
2023-05-19T01:14:40.344Z,7.40
2023-05-19T01:17:41.876Z,8.30
2023-05-19T01:20:15.856Z,9.40
2023-05-19T01:22:45.437Z,7.00
2023-05-19T01:25:31.097Z,10.60
2023-05-19T01:28:09.769Z,11.00
2023-05-19T01:30:40.467Z,11.70
2023-05-19T01:33:09.081Z,7.40
2023-05-19T01:35:37.709Z,9.20
2023-05-19T01:38:04.970Z,9.70
2023-05-19T01:40:32.157Z,13.50
2023-05-19T01:42:59.929Z,8.10
2023-05-19T01:45:29.837Z,16.00
2023-05-19T01:47:58.871Z,9.70
2023-05-19T01:50:25.859Z,9.50
2023-05-19T01:52:52.819Z,11.00
2023-05-19T01:55:20.796Z,12.50
2023-05-19T01:58:17.114Z,14.40
2023-05-19T02:01:19.810Z,14.70
2023-05-19T02:04:23.850Z,10.40
2023-05-19T02:06:53.361Z,14.60
2023-05-19T02:09:32.283Z,26.20
2023-05-19T02:12:01.911Z,17.30
2023-05-19T02:14:28.972Z,11.50
2023-05-19T02:16:56.950Z,9.80
2023-05-19T02:19:25.826Z,10.10
2023-05-19T02:21:54.047Z,9.40
2023-05-19T02:24:22.243Z,10.10
2023-05-19T02:26:50.104Z,8.00
2023-05-19T02:29:19.467Z,6.70
2023-05-19T02:31:46.570Z,7.10
2023-05-19T02:34:13.501Z,12.10
2023-05-19T02:36:42.559Z,9.00
2023-05-19T02:39:10.419Z,17.00
2023-05-19T02:41:38.149Z,11.80
2023-05-19T02:44:05.165Z,16.90
2023-05-19T02:46:32.201Z,15.00
2023-05-19T02:48:59.223Z,13.60
2023-05-19T02:51:26.324Z,15.20
2023-05-19T02:53:53.273Z,14.20
2023-05-19T02:56:21.135Z,10.00
2023-05-19T02:58:47.940Z,7.90
2023-05-19T03:01:15.290Z,12.20
2023-05-19T03:03:42.475Z,14.70
2023-05-19T03:06:09.407Z,18.10
2023-05-19T03:08:36.737Z,16.70
2023-05-19T03:11:03.537Z,12.80
2023-05-19T03:13:31.339Z,9.00
2023-05-19T03:15:58.636Z,10.90
2023-05-19T03:18:26.008Z,12.40
2023-05-19T03:20:55.908Z,20.60
2023-05-19T03:23:22.855Z,24.50
2023-05-19T03:25:50.256Z,16.50
2023-05-19T03:28:18.093Z,14.60
2023-05-19T03:30:45.815Z,13.40
2023-05-19T03:33:17.406Z,12.90
2023-05-19T03:35:44.735Z,14.90
2023-05-19T03:38:12.402Z,13.20
2023-05-19T03:40:40.902Z,9.70
2023-05-19T03:43:09.593Z,12.70
2023-05-19T03:45:42.095Z,12.30
2023-05-19T03:48:32.656Z,13.70
2023-05-19T03:51:22.128Z,11.50
2023-05-19T03:53:50.530Z,12.80
2023-05-19T03:56:20.181Z,9.50
2023-05-19T03:58:47.666Z,13.90
2023-05-19T04:01:15.031Z,11.30
2023-05-19T04:03:41.967Z,15.50
2023-05-19T04:06:08.977Z,13.10
2023-05-19T04:08:36.916Z,13.70
2023-05-19T04:11:03.893Z,10.60
2023-05-19T04:13:34.218Z,10.30
2023-05-19T04:16:01.144Z,14.00
2023-05-19T04:18:29.149Z,12.20
2023-05-19T04:20:56.378Z,10.40
2023-05-19T04:23:23.214Z,9.80
2023-05-19T04:25:50.303Z,11.00
2023-05-19T04:28:17.522Z,9.30
2023-05-19T04:30:46.138Z,8.00
2023-05-19T04:33:13.599Z,8.70
2023-05-19T04:35:40.883Z,10.00
2023-05-19T04:38:09.543Z,9.50
2023-05-19T04:40:39.759Z,8.00
2023-05-19T04:43:06.810Z,10.00
2023-05-19T04:45:33.927Z,12.30
2023-05-19T04:48:02.158Z,11.70
2023-05-19T04:50:31.882Z,8.50
2023-05-19T04:52:59.176Z,9.50
2023-05-19T04:55:26.580Z,17.10
2023-05-19T04:57:53.706Z,13.80
2023-05-19T05:00:21.232Z,6.10
2023-05-19T05:03:04.575Z,12.30
2023-05-19T05:05:32.288Z,7.20
2023-05-19T05:07:59.139Z,10.20
2023-05-19T05:10:27.825Z,10.10
2023-05-19T05:12:55.390Z,11.80
2023-05-19T05:15:23.772Z,12.70
2023-05-19T05:17:51.612Z,9.00
2023-05-19T05:20:19.313Z,8.00
2023-05-19T05:22:46.957Z,11.50
2023-05-19T05:25:15.801Z,17.50
2023-05-19T05:27:43.401Z,12.10
2023-05-19T05:30:10.907Z,9.20
2023-05-19T05:32:39.276Z,9.60
2023-05-19T05:35:10.674Z,12.30
2023-05-19T05:37:38.662Z,9.40
2023-05-19T05:40:06.592Z,5.30
2023-05-19T05:42:33.622Z,5.50
2023-05-19T05:45:00.405Z,7.20
2023-05-19T05:47:27.778Z,8.40
2023-05-19T05:49:55.296Z,9.10
2023-05-19T05:52:22.492Z,7.50
2023-05-19T05:54:50.210Z,6.10
2023-05-19T05:57:18.616Z,9.00
2023-05-19T05:59:46.590Z,6.50
2023-05-19T06:02:13.668Z,10.20
2023-05-19T06:04:40.556Z,8.20
2023-05-19T06:07:07.788Z,7.80
2023-05-19T06:09:39.756Z,13.10
2023-05-19T06:12:07.683Z,7.60
2023-05-19T06:14:42.016Z,7.40
2023-05-19T06:17:16.327Z,7.90
2023-05-19T06:19:43.382Z,6.30
2023-05-19T06:22:10.346Z,7.30
2023-05-19T06:24:39.466Z,6.60
2023-05-19T06:27:08.838Z,10.40
2023-05-19T06:29:35.740Z,11.40
2023-05-19T06:32:03.934Z,7.10
2023-05-19T06:34:31.710Z,7.60
2023-05-19T06:36:58.762Z,13.00
2023-05-19T06:39:25.742Z,6.80
2023-05-19T06:41:52.490Z,9.50
2023-05-19T06:44:38.057Z,13.50
2023-05-19T06:47:09.221Z,6.60
2023-05-19T06:49:37.238Z,9.80
2023-05-19T06:52:04.862Z,9.20
2023-05-19T06:54:31.800Z,6.80
2023-05-19T06:56:58.751Z,12.80
2023-05-19T06:59:25.734Z,8.20
2023-05-19T07:01:53.138Z,6.70
2023-05-19T07:04:19.993Z,6.10
2023-05-19T07:06:47.308Z,7.50
2023-05-19T07:09:14.324Z,6.60
2023-05-19T07:11:41.941Z,6.70
2023-05-19T07:14:10.174Z,5.70
2023-05-19T07:16:37.050Z,4.70
2023-05-19T07:19:05.514Z,8.20
2023-05-19T07:21:33.016Z,6.30
2023-05-19T07:24:00.157Z,5.70
2023-05-19T07:26:28.508Z,9.10
2023-05-19T07:28:55.335Z,7.70
2023-05-19T07:31:22.108Z,10.90
2023-05-19T07:33:49.101Z,6.30
2023-05-19T07:36:16.951Z,7.00
2023-05-19T07:38:47.586Z,5.70
2023-05-19T07:41:14.536Z,7.60
2023-05-19T07:43:42.488Z,2.90
2023-05-19T07:46:09.500Z,5.70
2023-05-19T07:48:38.335Z,8.60
2023-05-19T07:51:05.353Z,6.50
2023-05-19T07:53:32.331Z,5.90
2023-05-19T07:55:59.267Z,3.10
2023-05-19T07:58:26.236Z,5.30
2023-05-19T08:00:53.083Z,6.30
2023-05-19T08:03:20.121Z,4.40
2023-05-19T08:05:47.286Z,5.00
2023-05-19T08:08:18.919Z,12.60
2023-05-19T08:10:46.100Z,6.20
2023-05-19T08:13:13.011Z,7.50
2023-05-19T08:15:40.672Z,7.40
2023-05-19T08:18:12.328Z,8.80
2023-05-19T08:20:39.328Z,4.60
2023-05-19T08:23:06.493Z,6.90
2023-05-19T08:25:33.335Z,9.70
2023-05-19T08:28:00.638Z,4.50
2023-05-19T08:30:27.955Z,10.90
2023-05-19T08:32:54.965Z,6.50
2023-05-19T08:35:21.970Z,10.20
2023-05-19T08:37:49.009Z,7.40
2023-05-19T08:40:16.994Z,5.50
2023-05-19T08:42:45.325Z,4.40
2023-05-19T08:45:12.526Z,4.10
2023-05-19T08:47:43.154Z,6.30
2023-05-19T08:50:10.491Z,7.70
2023-05-19T08:52:51.858Z,7.30
2023-05-19T08:55:58.452Z,5.70
2023-05-19T08:58:26.867Z,5.70
2023-05-19T09:00:55.921Z,4.40
2023-05-19T09:03:23.774Z,8.50
2023-05-19T09:05:51.436Z,4.20
2023-05-19T09:08:18.439Z,10.50
2023-05-19T09:10:45.785Z,10.00
2023-05-19T09:13:12.516Z,5.90
2023-05-19T09:15:41.015Z,4.10
2023-05-19T09:18:11.993Z,5.30
2023-05-19T09:20:39.596Z,5.90
2023-05-19T09:23:07.824Z,4.20
2023-05-19T09:25:53.069Z,5.20
2023-05-19T09:28:34.554Z,5.10
2023-05-19T09:31:05.421Z,8.90
2023-05-19T09:33:37.779Z,5.60
2023-05-19T09:36:06.024Z,4.60
2023-05-19T09:38:33.128Z,6.20
2023-05-19T09:41:00.396Z,6.10
2023-05-19T09:43:35.036Z,15.70
2023-05-19T09:46:12.150Z,7.30
2023-05-19T09:48:41.779Z,9.40
2023-05-19T09:51:11.288Z,5.70
2023-05-19T09:53:38.364Z,10.90
2023-05-19T09:56:05.696Z,9.40
2023-05-19T09:58:36.776Z,10.70
2023-05-19T10:01:04.388Z,6.80
2023-05-19T10:03:34.820Z,8.80
2023-05-19T10:06:03.415Z,6.20
2023-05-19T10:08:31.410Z,6.00
2023-05-19T10:10:58.507Z,11.30
2023-05-19T10:13:26.016Z,8.00
2023-05-19T10:18:23.912Z,7.90
2023-05-19T10:20:50.968Z,11.70
2023-05-19T10:23:18.918Z,11.20
2023-05-19T10:25:45.855Z,11.00
2023-05-19T10:28:14.421Z,10.70
2023-05-19T10:30:44.497Z,11.20
2023-05-19T10:33:16.845Z,11.50
2023-05-19T10:35:50.738Z,21.60
2023-05-19T10:38:56.195Z,15.60
2023-05-19T10:42:02.050Z,11.70
2023-05-19T10:44:53.531Z,12.30
2023-05-19T10:47:26.734Z,20.60
2023-05-19T10:49:53.810Z,19.00
2023-05-19T10:52:29.009Z,14.20
2023-05-19T10:54:55.999Z,12.20
2023-05-19T10:57:27.460Z,16.60
2023-05-19T10:59:55.840Z,15.30
2023-05-19T11:02:38.963Z,11.10
2023-05-19T11:05:17.573Z,12.80
2023-05-19T11:07:54.587Z,16.10
2023-05-19T11:10:24.675Z,13.90
2023-05-19T11:15:18.920Z,14.30
2023-05-19T11:17:47.922Z,10.80
2023-05-19T11:20:25.199Z,12.90
2023-05-19T11:23:09.123Z,11.60
2023-05-19T11:25:50.680Z,10.40
2023-05-19T11:28:18.807Z,13.20
2023-05-19T11:30:49.816Z,14.70
2023-05-19T11:33:20.343Z,14.80
2023-05-19T11:35:49.292Z,14.00
2023-05-19T11:38:20.078Z,14.80
2023-05-19T11:40:49.076Z,15.60
2023-05-19T11:43:16.101Z,12.10
2023-05-19T11:45:43.078Z,11.90
2023-05-19T11:48:13.595Z,12.10
2023-05-19T11:50:41.020Z,10.00
2023-05-19T11:53:07.923Z,9.80
2023-05-19T11:55:34.912Z,10.80
2023-05-19T11:58:05.522Z,19.30
2023-05-19T12:00:38.630Z,13.70
2023-05-19T12:03:05.937Z,12.90
2023-05-19T12:05:39.913Z,9.70
2023-05-19T12:08:09.815Z,17.20
2023-05-19T12:10:37.738Z,12.40
2023-05-19T12:13:05.714Z,11.40
2023-05-19T12:15:33.457Z,10.30
2023-05-19T12:18:01.421Z,11.80
2023-05-19T12:20:31.493Z,10.70
2023-05-19T12:22:58.881Z,11.30
2023-05-19T12:25:25.950Z,12.50
2023-05-19T12:27:58.125Z,18.60
2023-05-19T12:30:28.196Z,17.00
2023-05-19T12:32:57.029Z,15.00
2023-05-19T12:35:32.993Z,14.40
2023-05-19T12:38:06.309Z,13.40
2023-05-19T12:40:34.640Z,8.50
2023-05-19T12:43:01.991Z,11.10
2023-05-19T12:45:31.841Z,11.30
2023-05-19T12:47:59.008Z,16.30
2023-05-19T12:50:30.660Z,9.80
2023-05-19T12:52:59.241Z,10.10
2023-05-19T12:55:26.262Z,9.90
2023-05-19T12:57:59.136Z,15.90
2023-05-19T13:00:28.336Z,10.60
2023-05-19T13:03:00.963Z,10.90
2023-05-19T13:05:28.734Z,13.40
2023-05-19T13:08:01.680Z,9.30
2023-05-19T13:10:29.122Z,8.80
2023-05-19T13:12:56.448Z,15.30
2023-05-19T13:15:24.580Z,12.10
2023-05-19T13:17:51.797Z,9.40
2023-05-19T13:20:19.436Z,13.00
2023-05-19T13:22:47.704Z,10.00
2023-05-19T13:25:14.597Z,11.30
2023-05-19T13:27:41.655Z,13.50
2023-05-19T13:30:09.167Z,20.00
2023-05-19T13:32:39.250Z,11.70
2023-05-19T13:35:06.648Z,18.40
2023-05-19T13:37:33.532Z,15.80
2023-05-19T13:40:00.950Z,20.20
2023-05-19T13:42:27.746Z,11.10
2023-05-19T13:44:55.910Z,15.80
2023-05-19T13:47:23.114Z,18.60
2023-05-19T13:49:50.796Z,14.70
2023-05-19T13:52:18.298Z,13.50
2023-05-19T13:54:45.119Z,17.00
2023-05-19T13:57:11.958Z,10.20
2023-05-19T13:59:45.854Z,9.60
2023-05-19T14:02:16.201Z,16.70
2023-05-19T14:04:43.254Z,14.10
2023-05-19T14:07:10.221Z,11.20
2023-05-19T14:09:37.241Z,10.50
2023-05-19T14:12:05.545Z,10.80
2023-05-19T14:14:33.658Z,11.20
2023-05-19T14:17:00.666Z,11.10
2023-05-19T14:19:29.576Z,7.80
2023-05-19T14:21:57.023Z,14.00
2023-05-19T14:24:23.869Z,9.30
2023-05-19T14:26:51.124Z,9.80
2023-05-19T14:29:18.255Z,9.70
2023-05-19T14:31:45.162Z,10.00
2023-05-19T14:34:12.385Z,8.60
2023-05-19T14:36:39.274Z,8.80
2023-05-19T14:39:06.075Z,10.10
2023-05-19T14:41:33.483Z,10.50
2023-05-19T14:44:00.256Z,12.60
2023-05-19T14:46:27.093Z,8.90
2023-05-19T14:48:54.200Z,13.20
2023-05-19T14:51:21.250Z,10.30
2023-05-19T14:53:49.717Z,11.00
2023-05-19T14:56:16.684Z,11.80
2023-05-19T14:58:43.623Z,9.70
2023-05-19T15:01:10.428Z,10.80
2023-05-19T15:03:38.154Z,13.50
2023-05-19T15:06:09.804Z,13.20
2023-05-19T15:08:37.270Z,15.90
2023-05-19T15:11:04.322Z,12.40
2023-05-19T15:13:31.186Z,11.50
2023-05-19T15:16:12.276Z,11.30
2023-05-19T15:18:43.239Z,8.00
2023-05-19T15:21:10.241Z,11.00
2023-05-19T15:23:37.116Z,10.80
2023-05-19T15:26:03.982Z,9.40
2023-05-19T15:28:31.524Z,8.90
2023-05-19T15:30:58.450Z,8.70
2023-05-19T15:33:25.359Z,8.70
2023-05-19T15:35:52.644Z,9.00
2023-05-19T15:38:19.607Z,10.00
2023-05-19T15:40:46.762Z,12.30
2023-05-19T15:43:13.820Z,11.20
2023-05-19T15:45:40.813Z,13.80
2023-05-19T15:48:08.205Z,8.10
2023-05-19T15:50:36.065Z,9.90
2023-05-19T15:53:03.386Z,11.10
2023-05-19T15:55:30.270Z,10.80
2023-05-19T15:57:57.127Z,9.10
2023-05-19T16:00:23.859Z,13.30
2023-05-19T16:02:51.222Z,9.20
2023-05-19T16:05:18.258Z,11.10
2023-05-19T16:07:45.354Z,8.50
2023-05-19T16:10:12.259Z,14.60
2023-05-19T16:12:39.222Z,19.60
2023-05-19T16:15:06.778Z,8.60
2023-05-19T16:17:34.311Z,8.70
2023-05-19T16:20:01.166Z,10.60
2023-05-19T16:22:29.639Z,12.50
2023-05-19T16:24:56.487Z,9.20
2023-05-19T16:27:23.336Z,10.20
2023-05-19T16:29:50.113Z,9.10
2023-05-19T16:32:17.060Z,9.00
2023-05-19T16:34:44.035Z,9.30
2023-05-19T16:37:10.738Z,10.30
2023-05-19T16:39:37.810Z,11.30
2023-05-19T16:42:04.730Z,9.60
2023-05-19T16:44:32.472Z,9.00
2023-05-19T16:46:59.382Z,8.60
2023-05-19T16:49:26.307Z,9.70
2023-05-19T16:51:53.783Z,10.90
2023-05-19T16:54:21.061Z,15.20
2023-05-19T16:56:49.001Z,12.90
2023-05-19T16:59:16.676Z,12.40
2023-05-19T17:01:43.866Z,10.90
2023-05-19T17:04:11.170Z,13.80
2023-05-19T17:06:37.945Z,10.50
2023-05-19T17:09:04.970Z,19.00
2023-05-19T17:11:32.147Z,22.10
2023-05-19T17:13:59.008Z,22.00
2023-05-19T17:16:25.770Z,16.40
2023-05-19T17:18:53.038Z,13.80
2023-05-19T17:21:20.036Z,25.60
2023-05-19T17:23:46.922Z,21.80
2023-05-19T17:26:15.374Z,21.50
2023-05-19T17:28:42.520Z,23.40
2023-05-19T17:31:11.310Z,19.40
2023-05-19T17:33:38.595Z,18.60
2023-05-19T17:36:06.137Z,22.60
2023-05-19T17:38:33.100Z,14.20
2023-05-19T17:41:09.034Z,14.30
2023-05-19T17:43:36.818Z,12.70
2023-05-19T17:46:04.816Z,11.40
2023-05-19T17:48:32.154Z,18.50
2023-05-19T17:50:59.062Z,18.40
2023-05-19T17:53:26.624Z,16.10
2023-05-19T17:55:57.596Z,12.70
2023-05-19T17:58:25.501Z,12.70
2023-05-19T18:00:53.354Z,17.80
2023-05-19T18:03:23.313Z,11.80
2023-05-19T18:05:51.129Z,15.10
2023-05-19T18:08:18.635Z,13.20
2023-05-19T18:10:47.877Z,14.80
2023-05-19T18:13:14.688Z,12.60
2023-05-19T18:15:41.821Z,8.80
2023-05-19T18:18:10.337Z,10.20
2023-05-19T18:20:43.575Z,10.70
2023-05-19T18:23:10.794Z,11.20
2023-05-19T18:25:37.911Z,11.60
2023-05-19T18:28:04.889Z,12.90
2023-05-19T18:30:32.278Z,10.50
2023-05-19T18:33:02.852Z,18.60
2023-05-19T18:35:30.259Z,16.80
2023-05-19T18:37:57.227Z,15.60
2023-05-19T18:40:24.110Z,10.90
2023-05-19T18:42:51.063Z,25.20
2023-05-19T18:45:18.137Z,12.90
2023-05-19T18:47:46.020Z,14.50
2023-05-19T18:50:13.853Z,10.70
2023-05-19T18:52:41.017Z,14.50
2023-05-19T18:55:08.697Z,13.30
2023-05-19T18:57:35.963Z,19.00
2023-05-19T19:00:03.722Z,14.40
2023-05-19T19:02:31.173Z,16.60
2023-05-19T19:04:58.251Z,13.60
2023-05-19T19:07:27.316Z,11.60
2023-05-19T19:09:54.088Z,15.30
2023-05-19T19:12:20.910Z,13.90
2023-05-19T19:14:48.209Z,13.20
2023-05-19T19:17:15.407Z,11.50
2023-05-19T19:19:42.544Z,11.30
2023-05-19T19:22:09.513Z,13.50
2023-05-19T19:24:36.792Z,16.30
2023-05-19T19:27:04.106Z,14.10
2023-05-19T19:29:31.643Z,14.90
2023-05-19T19:31:58.599Z,14.50
2023-05-19T19:34:25.827Z,11.60
2023-05-19T19:36:52.772Z,10.80
2023-05-19T19:39:19.722Z,9.90
2023-05-19T19:41:46.561Z,8.90
2023-05-19T19:44:13.544Z,11.30
2023-05-19T19:46:40.507Z,12.60
2023-05-19T19:49:07.914Z,13.60
2023-05-19T19:51:35.396Z,15.80
2023-05-19T19:54:02.220Z,16.00
2023-05-19T19:56:29.746Z,14.60
2023-05-19T19:58:58.835Z,10.90
2023-05-19T20:01:28.802Z,10.00
2023-05-19T20:03:56.444Z,11.40
2023-05-19T20:06:23.308Z,12.10
2023-05-19T20:08:50.220Z,10.80
2023-05-19T20:11:17.277Z,13.50
2023-05-19T20:13:44.126Z,10.20
2023-05-19T20:16:11.219Z,14.80
2023-05-19T20:18:38.919Z,8.00
2023-05-19T20:21:05.811Z,11.90
2023-05-19T20:23:32.720Z,12.70
2023-05-19T20:26:10.994Z,11.20
2023-05-19T20:28:38.905Z,8.20
2023-05-19T20:31:05.848Z,13.00
2023-05-19T20:33:32.641Z,10.50
2023-05-19T20:35:59.542Z,10.50
2023-05-19T20:38:26.223Z,11.30
2023-05-19T20:40:53.853Z,13.80
2023-05-19T20:43:20.871Z,14.60
2023-05-19T20:45:47.762Z,11.10
2023-05-19T20:48:17.801Z,12.80
2023-05-19T20:50:45.349Z,13.30
2023-05-19T20:53:12.423Z,9.30
2023-05-19T20:55:39.301Z,12.00
2023-05-19T20:58:06.315Z,11.50
2023-05-19T21:00:33.534Z,9.40
2023-05-19T21:03:01.265Z,13.80
2023-05-19T21:05:28.421Z,14.30
2023-05-19T21:07:57.586Z,12.30
2023-05-19T21:10:24.306Z,17.90
2023-05-19T21:12:51.117Z,17.00
2023-05-19T21:15:18.126Z,16.50
2023-05-19T21:17:46.134Z,15.30
2023-05-19T21:20:13.265Z,13.90
2023-05-19T21:22:40.481Z,12.00
2023-05-19T21:25:08.004Z,11.70
2023-05-19T21:27:35.953Z,12.10
2023-05-19T21:30:02.915Z,10.50
2023-05-19T21:32:30.873Z,12.40
2023-05-19T21:34:58.024Z,11.80
2023-05-19T21:37:24.996Z,10.20
2023-05-19T21:39:51.968Z,12.00
2023-05-19T21:42:18.827Z,10.90
2023-05-19T21:44:46.351Z,16.70
2023-05-19T21:47:13.152Z,15.50
2023-05-19T21:49:40.087Z,15.10
2023-05-19T21:52:07.258Z,16.90
2023-05-19T21:54:34.176Z,9.40
2023-05-19T21:57:01.803Z,12.00
2023-05-19T21:59:28.920Z,9.60
2023-05-19T22:01:55.961Z,10.70
2023-05-19T22:04:23.075Z,9.40
2023-05-19T22:06:49.921Z,9.50
2023-05-19T22:09:17.489Z,14.70
2023-05-19T22:11:44.702Z,11.40
2023-05-19T22:14:12.008Z,14.30
2023-05-19T22:16:38.785Z,12.00
2023-05-19T22:19:05.638Z,11.20
2023-05-19T22:21:32.590Z,8.70
2023-05-19T22:24:00.110Z,10.20
2023-05-19T22:26:27.051Z,14.50
2023-05-19T22:28:54.935Z,11.70
2023-05-19T22:31:21.713Z,10.00
2023-05-19T22:33:48.617Z,10.60
2023-05-19T22:36:15.629Z,9.10
2023-05-19T22:38:42.465Z,12.30
2023-05-19T22:41:09.382Z,9.40
2023-05-19T22:43:37.374Z,15.90
2023-05-19T22:46:04.722Z,14.50
2023-05-19T22:48:31.866Z,13.40
2023-05-19T22:50:58.747Z,12.40
2023-05-19T22:53:26.162Z,13.00
2023-05-19T22:55:52.861Z,9.50
2023-05-19T22:58:19.787Z,15.10
2023-05-19T23:00:46.769Z,12.60
2023-05-19T23:03:13.580Z,20.80
2023-05-19T23:05:40.931Z,11.40
2023-05-19T23:08:08.089Z,10.90
2023-05-19T23:10:34.934Z,10.90
2023-05-19T23:13:01.989Z,10.80
2023-05-19T23:15:29.147Z,10.00
2023-05-19T23:17:56.003Z,14.90
2023-05-19T23:20:23.017Z,8.30
2023-05-19T23:22:49.941Z,10.60
2023-05-19T23:25:16.930Z,15.20
2023-05-19T23:27:43.905Z,10.40
2023-05-19T23:30:11.239Z,8.90
2023-05-19T23:32:40.700Z,13.00
2023-05-19T23:35:11.138Z,15.20
2023-05-19T23:37:38.865Z,13.10
2023-05-19T23:40:06.740Z,12.40
2023-05-19T23:42:34.353Z,10.10
2023-05-19T23:45:01.696Z,12.80
2023-05-19T23:47:28.854Z,13.70
2023-05-19T23:49:55.880Z,13.80
2023-05-19T23:52:22.645Z,12.90
2023-05-19T23:54:49.563Z,12.90
2023-05-19T23:57:16.527Z,13.20
2023-05-19T23:59:43.524Z,13.30
